createdAt,value
2023-09-06T00:00:46.821Z,102000.19
2023-09-06T00:03:14.690Z,101987.47
2023-09-06T00:05:44.974Z,101988.81
2023-09-06T00:08:17.573Z,101992.50
2023-09-06T00:10:46.575Z,101986.38
2023-09-06T00:13:14.730Z,101974.56
2023-09-06T00:15:42.062Z,101966.25
2023-09-06T00:18:09.336Z,101970.84
2023-09-06T00:20:38.133Z,101969.88
2023-09-06T00:23:13.721Z,101973.25
2023-09-06T00:25:40.856Z,101965.47
2023-09-06T00:28:08.337Z,101968.44
2023-09-06T00:30:36.842Z,101956.53
2023-09-06T00:33:08.367Z,101952.03
2023-09-06T00:35:35.854Z,101956.72
2023-09-06T00:38:03.295Z,101955.53
2023-09-06T00:40:31.405Z,101946.56
2023-09-06T00:43:02.664Z,101940.34
2023-09-06T00:45:52.497Z,101942.19
2023-09-06T00:48:23.220Z,101946.03
2023-09-06T00:50:52.518Z,101940.84
2023-09-06T00:53:21.630Z,101931.25
2023-09-06T00:55:50.227Z,101935.50
2023-09-06T00:58:19.104Z,101936.94
2023-09-06T01:00:48.074Z,101931.47
2023-09-06T01:03:15.941Z,101921.09
2023-09-06T01:05:47.297Z,101923.56
2023-09-06T01:08:22.153Z,101929.25
2023-09-06T01:10:51.708Z,101923.28
2023-09-06T01:13:19.146Z,101917.34
2023-09-06T01:15:47.844Z,101916.44
2023-09-06T01:18:16.150Z,101912.84
2023-09-06T01:20:54.172Z,101905.66
2023-09-06T01:23:40.322Z,101896.25
2023-09-06T01:26:08.310Z,101904.47
2023-09-06T01:28:35.973Z,101898.00
2023-09-06T01:31:03.952Z,101900.22
2023-09-06T01:33:32.169Z,101898.75
2023-09-06T01:35:59.956Z,101896.72
2023-09-06T01:38:27.383Z,101893.84
2023-09-06T01:40:55.217Z,101891.69
2023-09-06T01:43:22.273Z,101880.75
2023-09-06T01:45:53.098Z,101884.78
2023-09-06T01:48:20.681Z,101886.88
2023-09-06T01:50:48.690Z,101887.19
2023-09-06T01:53:16.081Z,101887.09
2023-09-06T01:55:44.600Z,101883.16
2023-09-06T01:58:12.817Z,101882.06
2023-09-06T02:00:40.083Z,101873.31
2023-09-06T02:03:08.762Z,101872.31
2023-09-06T02:05:41.918Z,101874.84
2023-09-06T02:08:09.321Z,101868.03
2023-09-06T02:10:36.425Z,101869.16
2023-09-06T02:13:03.611Z,101870.34
2023-09-06T02:15:31.211Z,101879.97
2023-09-06T02:17:58.726Z,101881.81
2023-09-06T02:20:26.920Z,101881.28
2023-09-06T02:22:58.811Z,101880.84
2023-09-06T02:25:30.596Z,101879.75
2023-09-06T02:28:08.726Z,101879.81
2023-09-06T02:30:39.560Z,101877.31
2023-09-06T02:33:09.118Z,101872.75
2023-09-06T02:35:41.944Z,101876.75
2023-09-06T02:38:10.134Z,101871.41
2023-09-06T02:40:38.089Z,101879.84
2023-09-06T02:43:06.150Z,101872.84
2023-09-06T02:45:39.651Z,101882.22
2023-09-06T02:48:08.354Z,101881.47
2023-09-06T02:50:36.493Z,101886.75
2023-09-06T02:53:04.770Z,101887.09
2023-09-06T02:55:36.597Z,101882.88
2023-09-06T02:58:05.986Z,101894.06
2023-09-06T03:00:37.480Z,101890.13
2023-09-06T03:03:08.224Z,101886.72
2023-09-06T03:05:45.365Z,101882.50
2023-09-06T03:08:14.126Z,101880.41
2023-09-06T03:10:42.296Z,101874.63
2023-09-06T03:13:11.974Z,101875.63
2023-09-06T03:15:39.159Z,101873.09
2023-09-06T03:18:06.857Z,101864.72
2023-09-06T03:20:35.065Z,101879.38
2023-09-06T03:23:22.711Z,101874.81
2023-09-06T03:25:53.199Z,101869.94
2023-09-06T03:28:22.062Z,101874.28
2023-09-06T03:30:50.030Z,101877.38
2023-09-06T03:33:19.123Z,101870.03
2023-09-06T03:35:50.605Z,101881.25
2023-09-06T03:38:19.321Z,101881.38
2023-09-06T03:40:46.894Z,101871.91
2023-09-06T03:43:17.019Z,101876.16
2023-09-06T03:45:45.458Z,101880.66
2023-09-06T03:48:14.556Z,101870.34
2023-09-06T03:50:42.128Z,101875.03
2023-09-06T03:53:09.383Z,101877.88
2023-09-06T03:55:39.506Z,101874.47
2023-09-06T03:58:08.683Z,101877.31
2023-09-06T04:00:40.680Z,101876.34
2023-09-06T04:03:09.377Z,101878.66
2023-09-06T04:05:36.704Z,101875.69
2023-09-06T04:08:10.924Z,101872.19
2023-09-06T04:10:39.864Z,101869.47
2023-09-06T04:13:09.132Z,101867.72
2023-09-06T04:15:37.110Z,101871.75
2023-09-06T04:18:06.421Z,101866.59
2023-09-06T04:20:37.981Z,101870.66
2023-09-06T04:23:06.920Z,101866.84
2023-09-06T04:25:42.596Z,101866.97
2023-09-06T04:28:11.132Z,101872.50
2023-09-06T04:30:40.094Z,101870.44
2023-09-06T04:33:07.222Z,101875.78
2023-09-06T04:35:45.778Z,101878.44
2023-09-06T04:38:15.493Z,101888.94
2023-09-06T04:40:46.481Z,101885.22
2023-09-06T04:43:15.012Z,101893.28
2023-09-06T04:45:42.187Z,101895.88
2023-09-06T04:48:11.173Z,101905.47
2023-09-06T04:50:39.518Z,101899.78
2023-09-06T04:53:09.687Z,101906.09
2023-09-06T04:55:37.922Z,101908.84
2023-09-06T04:58:09.862Z,101897.50
2023-09-06T05:00:42.801Z,101895.13
2023-09-06T05:03:12.891Z,101897.25
2023-09-06T05:05:42.549Z,101894.81
2023-09-06T05:08:11.001Z,101899.59
2023-09-06T05:10:38.941Z,101900.75
2023-09-06T05:13:09.531Z,101890.69
2023-09-06T05:15:38.248Z,101893.53
2023-09-06T05:18:07.496Z,101887.75
2023-09-06T05:20:36.572Z,101889.69
2023-09-06T05:23:10.410Z,101891.81
2023-09-06T05:25:38.863Z,101889.13
2023-09-06T05:28:10.162Z,101878.88
2023-09-06T05:30:45.638Z,101877.47
2023-09-06T05:33:14.882Z,101888.06
2023-09-06T05:35:42.507Z,101882.47
2023-09-06T05:38:12.894Z,101881.72
2023-09-06T05:40:44.990Z,101872.63
2023-09-06T05:43:12.382Z,101871.28
2023-09-06T05:45:39.565Z,101870.84
2023-09-06T05:48:10.696Z,101866.66
2023-09-06T05:50:39.352Z,101868.84
2023-09-06T05:53:06.532Z,101877.84
2023-09-06T05:55:34.054Z,101875.03
2023-09-06T05:58:01.173Z,101866.31
2023-09-06T06:00:30.281Z,101862.41
2023-09-06T06:02:59.900Z,101862.63
2023-09-06T06:05:27.210Z,101863.31
2023-09-06T06:07:54.356Z,101848.47
2023-09-06T06:10:21.445Z,101845.75
2023-09-06T06:12:48.639Z,101830.53
2023-09-06T06:15:15.804Z,101791.88
2023-09-06T06:17:43.752Z,101769.06
2023-09-06T06:20:12.851Z,101814.66
2023-09-06T06:22:41.212Z,101859.94
2023-09-06T06:25:10.096Z,101938.53
2023-09-06T06:27:39.153Z,102030.63
2023-09-06T06:30:07.774Z,102074.03
2023-09-06T06:32:35.760Z,102112.94
2023-09-06T06:35:13.336Z,102185.91
2023-09-06T06:37:40.833Z,102312.06
2023-09-06T06:40:08.598Z,102386.78
2023-09-06T06:42:35.696Z,102452.84
2023-09-06T06:45:04.766Z,102488.06
2023-09-06T06:47:31.760Z,102506.28
2023-09-06T06:50:04.355Z,102528.53
2023-09-06T06:52:37.951Z,102541.56
2023-09-06T06:55:05.654Z,102548.31
2023-09-06T06:57:34.554Z,102563.88
2023-09-06T07:00:06.867Z,102577.38
2023-09-06T07:02:36.223Z,102583.47
2023-09-06T07:05:03.781Z,102578.13
2023-09-06T07:07:30.993Z,102581.88
2023-09-06T07:09:58.039Z,102568.97
2023-09-06T07:12:25.134Z,102557.84
2023-09-06T07:14:53.216Z,102551.31
2023-09-06T07:17:20.409Z,102550.34
2023-09-06T07:19:51.468Z,102542.34
2023-09-06T07:22:19.260Z,102539.09
2023-09-06T07:24:46.528Z,102529.03
2023-09-06T07:27:13.710Z,102532.00
2023-09-06T07:29:40.826Z,102532.16
2023-09-06T07:32:08.052Z,102537.03
2023-09-06T07:34:35.206Z,102537.44
2023-09-06T07:37:02.197Z,102537.03
2023-09-06T07:39:29.648Z,102545.91
2023-09-06T07:41:57.534Z,102546.69
2023-09-06T07:44:24.631Z,102550.59
2023-09-06T07:46:52.145Z,102553.66
2023-09-06T07:49:20.137Z,102559.19
2023-09-06T07:51:47.414Z,102559.19
2023-09-06T07:54:14.521Z,102567.34
2023-09-06T07:56:41.704Z,102574.91
2023-09-06T07:59:13.568Z,102573.16
2023-09-06T08:01:41.102Z,102569.53
2023-09-06T08:04:10.606Z,102587.00
2023-09-06T08:06:37.852Z,102588.88
2023-09-06T08:09:05.339Z,102589.88
2023-09-06T08:11:32.349Z,102585.38
2023-09-06T08:13:59.616Z,102594.22
2023-09-06T08:16:26.770Z,102598.56
2023-09-06T08:18:54.897Z,102593.75
2023-09-06T08:21:22.671Z,102594.59
2023-09-06T08:23:50.047Z,102593.34
2023-09-06T08:26:37.661Z,102595.41
2023-09-06T08:29:23.394Z,102595.31
2023-09-06T08:32:09.733Z,102605.59
2023-09-06T08:34:55.755Z,102608.13
2023-09-06T08:37:41.780Z,102603.06
2023-09-06T08:40:27.514Z,102603.00
2023-09-06T08:43:15.998Z,102609.03
2023-09-06T08:46:20.104Z,102609.00
2023-09-06T08:49:06.242Z,102605.66
2023-09-06T08:51:52.378Z,102604.63
2023-09-06T08:54:38.672Z,102604.28
2023-09-06T08:57:27.636Z,102611.56
2023-09-06T09:00:15.251Z,102617.34
2023-09-06T09:03:01.153Z,102608.13
2023-09-06T09:05:46.765Z,102608.72
2023-09-06T09:08:32.515Z,102611.31
2023-09-06T09:11:22.797Z,102614.06
2023-09-06T09:14:08.354Z,102601.94
2023-09-06T09:16:57.408Z,102604.47
2023-09-06T09:19:43.421Z,102598.31
2023-09-06T09:22:31.645Z,102594.09
2023-09-06T09:25:00.811Z,102581.97
2023-09-06T09:27:28.905Z,102578.03
2023-09-06T09:29:58.082Z,102578.78
2023-09-06T09:32:26.397Z,102582.81
2023-09-06T09:34:54.063Z,102576.47
2023-09-06T09:37:22.282Z,102570.41
2023-09-06T09:39:49.349Z,102576.00
2023-09-06T09:42:18.048Z,102569.41
2023-09-06T09:45:00.486Z,102570.72
2023-09-06T09:50:02.447Z,102574.31
2023-09-06T09:52:31.526Z,102564.69
2023-09-06T09:55:00.856Z,102568.72
2023-09-06T09:57:27.971Z,102567.16
2023-09-06T09:59:56.401Z,102556.53
2023-09-06T10:02:35.171Z,102556.50
2023-09-06T10:05:10.131Z,102569.41
2023-09-06T10:07:49.138Z,102561.06
2023-09-06T10:10:19.053Z,102562.81
2023-09-06T10:12:49.541Z,102557.34
2023-09-06T10:15:16.868Z,102548.81
2023-09-06T10:17:43.998Z,102559.47
2023-09-06T10:20:14.063Z,102559.59
2023-09-06T10:22:47.679Z,102563.72
2023-09-06T10:25:16.879Z,102554.16
2023-09-06T10:27:51.630Z,102563.00
2023-09-06T10:30:51.885Z,102560.94
2023-09-06T10:33:43.515Z,102555.25
2023-09-06T10:36:13.810Z,102568.00
2023-09-06T10:38:56.884Z,102560.56
2023-09-06T10:41:25.085Z,102560.50
2023-09-06T10:44:02.993Z,102562.72
2023-09-06T10:46:34.829Z,102554.53
2023-09-06T10:49:22.225Z,102550.03
2023-09-06T10:52:05.292Z,102573.16
2023-09-06T10:54:40.798Z,102570.53
2023-09-06T10:57:13.317Z,102561.22
2023-09-06T10:59:43.979Z,102551.56
2023-09-06T11:02:18.377Z,102562.81
2023-09-06T11:04:46.865Z,102569.41
2023-09-06T11:07:14.323Z,102555.34
2023-09-06T11:09:51.830Z,102557.63
2023-09-06T11:12:19.128Z,102565.63
2023-09-06T11:14:54.982Z,102548.63
2023-09-06T11:17:25.304Z,102549.38
2023-09-06T11:19:52.317Z,102563.97
2023-09-06T11:22:21.896Z,102565.13
2023-09-06T11:24:49.979Z,102559.59
2023-09-06T11:27:23.641Z,102556.50
2023-09-06T11:29:59.026Z,102555.06
2023-09-06T11:32:27.846Z,102548.66
2023-09-06T11:35:15.894Z,102555.38
2023-09-06T11:38:03.652Z,102549.63
2023-09-06T11:40:49.457Z,102556.72
2023-09-06T11:43:35.163Z,102554.91
2023-09-06T11:46:22.589Z,102549.31
2023-09-06T11:49:08.191Z,102550.69
2023-09-06T11:51:55.469Z,102549.03
2023-09-06T11:54:41.115Z,102551.94
2023-09-06T11:57:31.954Z,102553.63
2023-09-06T12:00:29.486Z,102550.16
2023-09-06T12:03:17.547Z,102552.28
2023-09-06T12:06:04.657Z,102551.44
2023-09-06T12:08:52.095Z,102552.41
2023-09-06T12:11:38.566Z,102552.28
2023-09-06T12:14:24.199Z,102552.66
2023-09-06T12:17:09.675Z,102549.84
2023-09-06T12:20:00.147Z,102542.13
2023-09-06T12:22:47.494Z,102540.81
2023-09-06T12:25:33.082Z,102526.50
2023-09-06T12:28:18.500Z,102535.38
2023-09-06T12:30:46.528Z,102529.50
2023-09-06T12:33:15.751Z,102533.66
2023-09-06T12:35:42.962Z,102533.56
2023-09-06T12:38:09.953Z,102521.69
2023-09-06T12:40:56.132Z,102524.78
2023-09-06T12:43:41.715Z,102543.78
2023-09-06T12:46:27.351Z,102526.78
2023-09-06T12:49:13.689Z,102520.25
2023-09-06T12:51:59.409Z,102523.28
2023-09-06T12:54:44.579Z,102522.47
2023-09-06T12:57:30.085Z,102510.59
2023-09-06T13:00:16.339Z,102519.97
2023-09-06T13:03:02.736Z,102505.63
2023-09-06T13:05:50.375Z,102521.03
2023-09-06T13:08:19.484Z,102507.91
2023-09-06T13:10:48.121Z,102499.38
2023-09-06T13:13:15.148Z,102505.56
2023-09-06T13:15:42.490Z,102501.50
2023-09-06T13:18:11.772Z,102493.94
2023-09-06T13:20:39.317Z,102503.72
2023-09-06T13:23:06.186Z,102505.34
2023-09-06T13:25:36.964Z,102503.13
2023-09-06T13:28:06.379Z,102502.00
2023-09-06T13:30:33.832Z,102502.28
2023-09-06T13:33:01.409Z,102486.63
2023-09-06T13:35:28.808Z,102498.53
2023-09-06T13:37:57.169Z,102487.22
2023-09-06T13:40:25.407Z,102504.59
2023-09-06T13:42:52.564Z,102499.09
2023-09-06T13:45:19.885Z,102480.25
2023-09-06T13:47:47.237Z,102493.88
2023-09-06T13:50:14.474Z,102485.19
2023-09-06T13:52:41.718Z,102496.94
2023-09-06T13:55:09.371Z,102489.69
2023-09-06T13:57:36.418Z,102497.53
2023-09-06T14:00:06.801Z,102480.97
2023-09-06T14:02:36.430Z,102491.34
2023-09-06T14:05:05.014Z,102483.34
2023-09-06T14:07:32.386Z,102479.78
2023-09-06T14:10:00.711Z,102486.78
2023-09-06T14:12:28.161Z,102492.53
2023-09-06T14:15:00.660Z,102474.66
2023-09-06T14:17:27.753Z,102467.50
2023-09-06T14:19:54.954Z,102478.28
2023-09-06T14:22:22.011Z,102478.09
2023-09-06T14:24:49.313Z,102482.38
2023-09-06T14:27:17.870Z,102484.84
2023-09-06T14:29:44.896Z,102499.84
2023-09-06T14:32:13.164Z,102513.25
2023-09-06T14:34:41.321Z,102520.03
2023-09-06T14:37:08.509Z,102518.63
2023-09-06T14:39:35.819Z,102511.13
2023-09-06T14:42:03.098Z,102511.47
2023-09-06T14:44:31.125Z,102494.56
2023-09-06T14:47:01.344Z,102496.44
2023-09-06T14:49:30.305Z,102507.47
2023-09-06T14:52:02.529Z,102506.19
2023-09-06T14:54:30.152Z,102505.91
2023-09-06T14:56:59.325Z,102504.09
2023-09-06T14:59:27.580Z,102490.66
2023-09-06T15:01:54.880Z,102493.22
2023-09-06T15:04:22.498Z,102511.94
2023-09-06T15:06:59.695Z,102500.06
2023-09-06T15:09:27.474Z,102501.25
2023-09-06T15:11:55.436Z,102509.09
2023-09-06T15:14:22.572Z,102508.41
2023-09-06T15:16:49.751Z,102509.38
2023-09-06T15:19:16.837Z,102503.53
2023-09-06T15:21:44.583Z,102518.66
2023-09-06T15:24:11.740Z,102511.72
2023-09-06T15:26:38.880Z,102517.69
2023-09-06T15:29:06.671Z,102513.41
2023-09-06T15:31:33.869Z,102513.09
2023-09-06T15:34:01.065Z,102519.06
2023-09-06T15:36:31.641Z,102515.50
2023-09-06T15:38:58.989Z,102524.94
2023-09-06T15:41:28.093Z,102521.47
2023-09-06T15:43:55.199Z,102505.09
2023-09-06T15:46:22.560Z,102512.28
2023-09-06T15:48:49.680Z,102518.41
2023-09-06T15:51:16.933Z,102526.81
2023-09-06T15:53:44.241Z,102517.69
2023-09-06T15:56:11.768Z,102523.97
2023-09-06T15:58:38.893Z,102509.69
2023-09-06T16:01:07.071Z,102511.41
2023-09-06T16:03:34.430Z,102521.22
2023-09-06T16:06:02.032Z,102511.13
2023-09-06T16:08:29.623Z,102524.59
2023-09-06T16:11:01.048Z,102514.94
2023-09-06T16:13:28.054Z,102511.50
2023-09-06T16:15:55.166Z,102519.59
2023-09-06T16:18:22.261Z,102534.06
2023-09-06T16:20:49.408Z,102527.06
2023-09-06T16:23:16.558Z,102527.25
2023-09-06T16:25:43.767Z,102532.47
2023-09-06T16:28:10.868Z,102525.84
2023-09-06T16:30:40.155Z,102528.59
2023-09-06T16:33:07.622Z,102534.38
2023-09-06T16:35:37.056Z,102543.78
2023-09-06T16:38:07.829Z,102538.91
2023-09-06T16:40:35.649Z,102544.94
2023-09-06T16:43:03.112Z,102554.09
2023-09-06T16:45:30.352Z,102545.50
2023-09-06T16:47:57.491Z,102559.59
2023-09-06T16:50:24.861Z,102547.94
2023-09-06T16:52:52.018Z,102552.16
2023-09-06T16:55:19.266Z,102560.28
2023-09-06T16:57:46.595Z,102566.28
2023-09-06T17:00:14.628Z,102568.81
2023-09-06T17:02:41.749Z,102571.34
2023-09-06T17:05:10.203Z,102584.84
2023-09-06T17:07:39.185Z,102586.28
2023-09-06T17:10:09.669Z,102580.81
2023-09-06T17:12:37.484Z,102590.09
2023-09-06T17:15:20.131Z,102584.84
2023-09-06T17:17:49.454Z,102589.84
2023-09-06T17:20:18.918Z,102590.75
2023-09-06T17:22:46.768Z,102590.59
2023-09-06T17:25:14.467Z,102595.34
2023-09-06T17:27:43.772Z,102596.47
2023-09-06T17:30:22.253Z,102595.91
2023-09-06T17:33:15.206Z,102596.47
2023-09-06T17:35:46.639Z,102595.56
2023-09-06T17:38:16.567Z,102597.25
2023-09-06T17:40:48.947Z,102592.84
2023-09-06T17:43:16.922Z,102595.59
2023-09-06T17:45:47.198Z,102603.41
2023-09-06T17:48:17.115Z,102599.47
2023-09-06T17:50:51.016Z,102596.03
2023-09-06T17:53:26.636Z,102606.94
2023-09-06T17:56:09.083Z,102606.44
2023-09-06T17:58:40.083Z,102606.94
2023-09-06T18:01:10.064Z,102609.88
2023-09-06T18:03:41.969Z,102618.94
2023-09-06T18:06:15.027Z,102619.22
2023-09-06T18:08:44.405Z,102619.97
2023-09-06T18:11:13.180Z,102626.53
2023-09-06T18:13:42.446Z,102620.91
2023-09-06T18:16:14.216Z,102627.47
2023-09-06T18:18:42.757Z,102624.41
2023-09-06T18:21:12.452Z,102625.59
2023-09-06T18:23:40.991Z,102635.22
2023-09-06T18:26:09.352Z,102641.88
2023-09-06T18:28:37.041Z,102640.84
2023-09-06T18:31:04.811Z,102642.88
2023-09-06T18:33:32.490Z,102640.88
2023-09-06T18:36:00.757Z,102643.19
2023-09-06T18:38:28.577Z,102643.31
2023-09-06T18:40:57.557Z,102637.94
2023-09-06T18:43:25.018Z,102637.19
2023-09-06T18:45:52.471Z,102640.69
2023-09-06T18:48:23.783Z,102634.69
2023-09-06T18:50:52.899Z,102636.69
2023-09-06T18:53:21.700Z,102645.44
2023-09-06T18:55:49.110Z,102640.72
2023-09-06T18:58:25.246Z,102634.00
2023-09-06T19:00:52.711Z,102635.94
2023-09-06T19:03:21.062Z,102644.72
2023-09-06T19:05:48.790Z,102639.19
2023-09-06T19:08:26.117Z,102641.47
2023-09-06T19:10:53.446Z,102646.06
2023-09-06T19:13:21.388Z,102637.78
2023-09-06T19:15:50.257Z,102640.25
2023-09-06T19:18:19.734Z,102637.59
2023-09-06T19:20:47.187Z,102637.59
2023-09-06T19:23:18.611Z,102634.78
2023-09-06T19:25:53.510Z,102628.94
2023-09-06T19:28:25.120Z,102623.56
2023-09-06T19:30:54.918Z,102627.44
2023-09-06T19:33:22.265Z,102618.53
2023-09-06T19:35:49.908Z,102615.19
2023-09-06T19:38:21.348Z,102613.22
2023-09-06T19:40:51.216Z,102614.88
2023-09-06T19:43:20.303Z,102606.97
2023-09-06T19:45:53.383Z,102606.41
2023-09-06T19:48:20.919Z,102600.78
2023-09-06T19:50:50.095Z,102588.75
2023-09-06T19:53:17.789Z,102580.97
2023-09-06T19:55:45.242Z,102577.19
2023-09-06T19:58:12.653Z,102586.00
2023-09-06T20:00:40.245Z,102565.47
2023-09-06T20:03:07.909Z,102562.25
2023-09-06T20:05:37.051Z,102558.22
2023-09-06T20:08:04.486Z,102547.69
2023-09-06T20:10:31.593Z,102539.56
2023-09-06T20:12:58.878Z,102537.19
2023-09-06T20:15:26.294Z,102526.59
2023-09-06T20:17:58.905Z,102533.69
2023-09-06T20:20:26.291Z,102525.97
2023-09-06T20:22:53.596Z,102513.91
2023-09-06T20:25:21.279Z,102511.94
2023-09-06T20:27:48.817Z,102507.22
2023-09-06T20:30:16.404Z,102499.38
2023-09-06T20:32:44.341Z,102491.63
2023-09-06T20:35:11.597Z,102481.44
2023-09-06T20:37:39.896Z,102474.75
2023-09-06T20:40:08.021Z,102478.25
2023-09-06T20:42:36.104Z,102471.66
2023-09-06T20:45:03.847Z,102467.38
2023-09-06T20:47:31.697Z,102467.59
2023-09-06T20:49:59.687Z,102467.44
2023-09-06T20:52:27.571Z,102461.13
2023-09-06T20:54:57.704Z,102461.91
2023-09-06T20:57:25.134Z,102461.44
2023-09-06T20:59:52.631Z,102448.44
2023-09-06T21:02:20.060Z,102452.94
2023-09-06T21:04:47.578Z,102442.81
2023-09-06T21:07:15.198Z,102447.38
2023-09-06T21:09:42.728Z,102440.59
2023-09-06T21:12:10.400Z,102431.84
2023-09-06T21:14:38.352Z,102429.56
2023-09-06T21:17:05.688Z,102420.34
2023-09-06T21:19:33.207Z,102418.59
2023-09-06T21:22:00.501Z,102410.09
2023-09-06T21:24:30.665Z,102410.25
2023-09-06T21:26:58.640Z,102397.84
2023-09-06T21:29:29.088Z,102388.25
2023-09-06T21:31:57.660Z,102386.75
2023-09-06T21:34:25.329Z,102379.72
2023-09-06T21:36:52.830Z,102383.41
2023-09-06T21:39:20.400Z,102385.22
2023-09-06T21:41:48.540Z,102374.44
2023-09-06T21:44:16.317Z,102371.94
2023-09-06T21:46:43.759Z,102363.06
2023-09-06T21:49:11.100Z,102360.28
2023-09-06T21:51:38.707Z,102343.13
2023-09-06T21:54:06.086Z,102341.91
2023-09-06T21:56:33.684Z,102331.78
2023-09-06T21:59:00.929Z,102328.03
2023-09-06T22:01:28.286Z,102323.31
2023-09-06T22:03:55.830Z,102322.16
2023-09-06T22:06:23.326Z,102317.16
2023-09-06T22:08:50.907Z,102309.66
2023-09-06T22:11:18.354Z,102299.50
2023-09-06T22:13:45.984Z,102284.38
2023-09-06T22:16:13.359Z,102276.50
2023-09-06T22:18:40.821Z,102263.84
2023-09-06T22:21:08.480Z,102258.06
2023-09-06T22:23:35.765Z,102247.78
2023-09-06T22:26:03.403Z,102239.91
2023-09-06T22:28:33.325Z,102229.88
2023-09-06T22:31:01.325Z,102231.75
2023-09-06T22:33:28.957Z,102227.03
2023-09-06T22:35:56.448Z,102220.78
2023-09-06T22:38:23.733Z,102215.53
2023-09-06T22:40:51.300Z,102213.56
2023-09-06T22:43:19.230Z,102202.28
2023-09-06T22:45:50.746Z,102205.56
2023-09-06T22:48:18.408Z,102197.09
2023-09-06T22:50:46.912Z,102178.75
2023-09-06T22:53:14.933Z,102182.88
2023-09-06T22:55:43.482Z,102185.28
2023-09-06T22:58:10.813Z,102170.53
2023-09-06T23:00:38.268Z,102174.03
2023-09-06T23:03:06.004Z,102165.28
2023-09-06T23:05:33.665Z,102161.13
2023-09-06T23:08:01.503Z,102159.66
2023-09-06T23:10:29.090Z,102158.56
2023-09-06T23:12:57.351Z,102157.59
2023-09-06T23:15:25.167Z,102152.06
2023-09-06T23:17:54.015Z,102142.06
2023-09-06T23:20:29.872Z,102139.72
2023-09-06T23:22:59.768Z,102137.09
2023-09-06T23:25:36.997Z,102126.47
2023-09-06T23:28:16.547Z,102119.81
2023-09-06T23:30:52.152Z,102115.78
2023-09-06T23:33:30.265Z,102113.50
2023-09-06T23:35:57.798Z,102114.25
2023-09-06T23:38:25.688Z,102114.25
2023-09-06T23:40:54.690Z,102106.22
2023-09-06T23:43:21.950Z,102114.25
2023-09-06T23:45:51.152Z,102113.13
2023-09-06T23:48:18.870Z,102108.47
2023-09-06T23:50:46.965Z,102116.53
2023-09-06T23:53:14.490Z,102107.03
2023-09-06T23:55:41.665Z,102108.31
2023-09-06T23:58:10.226Z,102103.06
